LUJ142 GMMN-LIRQ
Flight info
| Callsign | LUJ142 |
|---|---|
| Flight time | 2h 20m |
| Altitude | 47000 |
| Route | TOLSI UG5 ROMSO UM985 BARPA M985 PIMOS M445 SOPET M985 BCN N870 DIBER UN870 SOSUR DCT STP/N0495F450 A3 NORKA DCT MAREL |
| Aircraft | C750/M-SBDE3FGHIRWXY/LB1 |
Departure
| Time | 2026-04-29 15:42 |
|---|---|
| Airport | Mohammed V International Airport (GMMN) |
Arrival
| Time | 2026-04-29 18:02 |
|---|---|
| Airport | Florence Airport, Peretola (LIRQ) |
| Time | Latitude | Longitude | Altitude | Speed | Heading |
|---|---|---|---|---|---|
| 2026-04-29 15:42 | 33.61255 | -7.41135 | 13151 ft | 353 kts | 4° |
| 2026-04-29 15:42 | 33.63576 | -7.40777 | 13257 ft | 375 kts | 7° |
| 2026-04-29 15:42 | 33.66295 | -7.40191 | 13998 ft | 378 kts | 9° |
| 2026-04-29 15:43 | 33.68896 | -7.39639 | 14640 ft | 381 kts | 7° |
| 2026-04-29 15:43 | 33.71532 | -7.39165 | 15251 ft | 385 kts | 6° |
| 2026-04-29 15:43 | 33.74166 | -7.38693 | 15882 ft | 389 kts | 6° |
| 2026-04-29 15:43 | 33.76855 | -7.38162 | 16524 ft | 394 kts | 7° |
| 2026-04-29 15:44 | 33.79569 | -7.37620 | 17191 ft | 397 kts | 6° |
| 2026-04-29 15:44 | 33.82314 | -7.37097 | 17866 ft | 401 kts | 6° |
| 2026-04-29 15:44 | 33.85087 | -7.36575 | 18531 ft | 406 kts | 6° |
| 2026-04-29 15:44 | 33.87927 | -7.36025 | 19164 ft | 410 kts | 6° |
| 2026-04-29 15:45 | 33.90682 | -7.35487 | 19782 ft | 414 kts | 6° |
| 2026-04-29 15:45 | 33.93703 | -7.34905 | 20474 ft | 418 kts | 6° |
| 2026-04-29 15:45 | 33.96500 | -7.34369 | 21103 ft | 422 kts | 6° |
| 2026-04-29 15:45 | 33.99407 | -7.33807 | 21754 ft | 426 kts | 6° |
| 2026-04-29 15:46 | 34.02331 | -7.33239 | 22395 ft | 430 kts | 6° |
| 2026-04-29 15:46 | 34.05311 | -7.32663 | 23037 ft | 435 kts | 6° |
| 2026-04-29 15:46 | 34.08377 | -7.32070 | 23662 ft | 439 kts | 6° |
| 2026-04-29 15:46 | 34.11317 | -7.31297 | 24117 ft | 447 kts | 14° |
| 2026-04-29 15:47 | 34.14270 | -7.29841 | 24681 ft | 453 kts | 24° |
| 2026-04-29 15:47 | 34.17034 | -7.28124 | 25192 ft | 457 kts | 25° |
| 2026-04-29 15:47 | 34.19971 | -7.26309 | 25731 ft | 461 kts | 24° |
| 2026-04-29 15:47 | 34.22705 | -7.24639 | 26211 ft | 465 kts | 24° |
| 2026-04-29 15:48 | 34.24689 | -7.23423 | 26560 ft | 468 kts | 24° |
| 2026-04-29 15:48 | 34.26433 | -7.22347 | 26866 ft | 470 kts | 24° |
| 2026-04-29 15:48 | 34.29357 | -7.20532 | 27368 ft | 474 kts | 24° |
| 2026-04-29 15:48 | 34.32299 | -7.18713 | 27841 ft | 478 kts | 24° |
| 2026-04-29 15:49 | 34.35283 | -7.16874 | 28343 ft | 483 kts | 24° |
| 2026-04-29 15:49 | 34.38356 | -7.14975 | 28865 ft | 487 kts | 24° |
| 2026-04-29 15:49 | 34.41406 | -7.13083 | 29361 ft | 490 kts | 24° |
| 2026-04-29 15:49 | 34.44453 | -7.11194 | 29849 ft | 495 kts | 24° |
| 2026-04-29 15:50 | 34.47537 | -7.09283 | 30268 ft | 498 kts | 24° |
| 2026-04-29 15:50 | 34.50630 | -7.07364 | 30688 ft | 502 kts | 24° |
| 2026-04-29 15:50 | 34.53746 | -7.05427 | 31190 ft | 502 kts | 24° |
| 2026-04-29 15:50 | 34.56846 | -7.03498 | 31847 ft | 500 kts | 24° |
| 2026-04-29 15:51 | 34.59936 | -7.01576 | 32444 ft | 499 kts | 24° |
| 2026-04-29 15:51 | 34.63029 | -6.99663 | 33039 ft | 499 kts | 23° |
| 2026-04-29 15:51 | 34.66146 | -6.97770 | 33640 ft | 498 kts | 23° |
| 2026-04-29 15:51 | 34.69228 | -6.95899 | 34227 ft | 497 kts | 23° |
| 2026-04-29 15:52 | 34.72311 | -6.94000 | 34782 ft | 496 kts | 23° |
| 2026-04-29 15:52 | 34.75397 | -6.92095 | 35350 ft | 494 kts | 23° |
| 2026-04-29 15:52 | 34.78413 | -6.90246 | 35910 ft | 493 kts | 23° |
| 2026-04-29 15:52 | 34.81481 | -6.88368 | 36489 ft | 491 kts | 23° |
| 2026-04-29 15:53 | 34.84491 | -6.86515 | 37054 ft | 490 kts | 23° |
| 2026-04-29 15:53 | 34.87612 | -6.84588 | 37637 ft | 489 kts | 23° |
| 2026-04-29 15:53 | 34.90650 | -6.82716 | 38200 ft | 488 kts | 22° |
| 2026-04-29 15:53 | 34.93677 | -6.80852 | 38739 ft | 487 kts | 22° |
| 2026-04-29 15:54 | 34.96696 | -6.78989 | 39157 ft | 487 kts | 22° |
| 2026-04-29 15:54 | 34.99709 | -6.77125 | 39582 ft | 487 kts | 23° |
| 2026-04-29 15:54 | 35.02741 | -6.75250 | 40003 ft | 487 kts | 23° |
| 2026-04-29 15:54 | 35.05777 | -6.73373 | 40455 ft | 486 kts | 23° |
| 2026-04-29 15:55 | 35.08792 | -6.71505 | 40899 ft | 486 kts | 23° |
| 2026-04-29 15:55 | 35.11763 | -6.69664 | 41324 ft | 486 kts | 23° |
| 2026-04-29 15:55 | 35.14767 | -6.67800 | 41763 ft | 485 kts | 23° |
| 2026-04-29 15:55 | 35.17776 | -6.65931 | 42188 ft | 485 kts | 23° |
| 2026-04-29 15:56 | 35.20791 | -6.64058 | 42607 ft | 485 kts | 23° |
| 2026-04-29 15:56 | 35.23788 | -6.62194 | 43025 ft | 485 kts | 23° |
| 2026-04-29 15:56 | 35.26803 | -6.60317 | 43433 ft | 485 kts | 23° |
| 2026-04-29 15:56 | 35.29806 | -6.58446 | 43846 ft | 484 kts | 23° |
| 2026-04-29 15:57 | 35.32851 | -6.56548 | 44248 ft | 484 kts | 23° |
| 2026-04-29 15:57 | 35.35862 | -6.54668 | 44629 ft | 484 kts | 23° |
| 2026-04-29 15:57 | 35.38859 | -6.52797 | 44955 ft | 484 kts | 23° |
| 2026-04-29 15:57 | 35.41806 | -6.50791 | 45218 ft | 487 kts | 30° |
| 2026-04-29 15:58 | 35.44502 | -6.48262 | 45494 ft | 491 kts | 40° |
| 2026-04-29 15:58 | 35.46090 | -6.46327 | 45677 ft | 493 kts | 46° |
| 2026-04-29 15:58 | 35.48202 | -6.42990 | 45933 ft | 495 kts | 55° |
| 2026-04-29 15:58 | 35.49973 | -6.39310 | 46200 ft | 495 kts | 60° |
| 2026-04-29 15:59 | 35.51549 | -6.35593 | 46451 ft | 496 kts | 62° |
| 2026-04-29 15:59 | 35.53222 | -6.31774 | 46636 ft | 496 kts | 58° |
| 2026-04-29 15:59 | 35.55059 | -6.28235 | 46840 ft | 492 kts | 54° |
| 2026-04-29 15:59 | 35.56985 | -6.24775 | 46942 ft | 486 kts | 55° |
| 2026-04-29 16:00 | 35.58797 | -6.21234 | 46932 ft | 492 kts | 58° |
| 2026-04-29 16:00 | 35.62325 | -6.13925 | 46943 ft | 502 kts | 57° |
| 2026-04-29 16:01 | 35.66105 | -6.06617 | 46950 ft | 512 kts | 57° |
| 2026-04-29 16:01 | 35.69828 | -5.99045 | 46955 ft | 522 kts | 57° |
| 2026-04-29 16:02 | 35.73666 | -5.91358 | 46936 ft | 531 kts | 61° |
| 2026-04-29 16:02 | 35.76870 | -5.83128 | 46949 ft | 533 kts | 65° |
| 2026-04-29 16:03 | 35.80092 | -5.74945 | 46953 ft | 531 kts | 63° |
| 2026-04-29 16:03 | 35.83312 | -5.66746 | 46940 ft | 532 kts | 64° |
| 2026-04-29 16:04 | 35.86620 | -5.58519 | 46952 ft | 533 kts | 62° |
| 2026-04-29 16:04 | 35.89938 | -5.50411 | 46964 ft | 532 kts | 64° |
| 2026-04-29 16:05 | 35.93198 | -5.42232 | 46967 ft | 531 kts | 63° |
| 2026-04-29 16:05 | 35.96519 | -5.34063 | 46969 ft | 532 kts | 63° |
| 2026-04-29 16:06 | 35.99774 | -5.25884 | 46967 ft | 531 kts | 63° |
| 2026-04-29 16:06 | 36.03183 | -5.17789 | 46955 ft | 532 kts | 62° |
| 2026-04-29 16:07 | 36.06549 | -5.09648 | 46940 ft | 532 kts | 62° |
| 2026-04-29 16:07 | 36.09994 | -5.01481 | 46938 ft | 532 kts | 62° |
| 2026-04-29 16:08 | 36.13387 | -4.93294 | 46934 ft | 532 kts | 62° |
| 2026-04-29 16:08 | 36.17557 | -4.85776 | 46919 ft | 530 kts | 46° |
| 2026-04-29 16:09 | 36.22792 | -4.79393 | 46938 ft | 528 kts | 41° |
| 2026-04-29 16:09 | 36.27893 | -4.72781 | 46939 ft | 529 kts | 46° |
| 2026-04-29 16:10 | 36.32810 | -4.66361 | 46933 ft | 528 kts | 43° |
| 2026-04-29 16:10 | 36.37937 | -4.59805 | 46929 ft | 528 kts | 45° |
| 2026-04-29 16:11 | 36.42969 | -4.53175 | 46929 ft | 527 kts | 44° |
| 2026-04-29 16:11 | 36.48068 | -4.46614 | 46925 ft | 527 kts | 45° |
| 2026-04-29 16:12 | 36.53089 | -4.40001 | 46926 ft | 527 kts | 44° |
| 2026-04-29 16:12 | 36.58172 | -4.33401 | 46922 ft | 527 kts | 44° |
| 2026-04-29 16:13 | 36.63182 | -4.26806 | 46922 ft | 526 kts | 44° |
| 2026-04-29 16:13 | 36.68286 | -4.20128 | 46924 ft | 526 kts | 44° |
| 2026-04-29 16:14 | 36.73254 | -4.13579 | 46927 ft | 526 kts | 44° |
| 2026-04-29 16:14 | 36.78307 | -4.06929 | 46937 ft | 526 kts | 44° |
| 2026-04-29 16:15 | 36.83330 | -4.00289 | 46940 ft | 525 kts | 45° |
| 2026-04-29 16:15 | 36.88331 | -3.93674 | 46944 ft | 524 kts | 45° |
| 2026-04-29 16:16 | 36.93292 | -3.87093 | 46942 ft | 524 kts | 45° |
| 2026-04-29 16:16 | 36.98342 | -3.80384 | 46941 ft | 525 kts | 45° |
| 2026-04-29 16:17 | 37.03374 | -3.73682 | 46945 ft | 524 kts | 45° |
| 2026-04-29 16:17 | 37.08354 | -3.67037 | 46940 ft | 522 kts | 45° |
| 2026-04-29 16:18 | 37.12475 | -3.61624 | 46933 ft | 522 kts | 43° |
| 2026-04-29 16:18 | 37.17536 | -3.55059 | 46934 ft | 522 kts | 44° |
| 2026-04-29 16:19 | 37.22456 | -3.48709 | 46933 ft | 521 kts | 44° |
| 2026-04-29 16:19 | 37.27559 | -3.42103 | 46927 ft | 520 kts | 44° |
| 2026-04-29 16:20 | 37.32525 | -3.35648 | 46931 ft | 519 kts | 44° |
| 2026-04-29 16:20 | 37.37571 | -3.29097 | 46927 ft | 520 kts | 44° |
| 2026-04-29 16:21 | 37.42627 | -3.22498 | 46921 ft | 520 kts | 44° |
| 2026-04-29 16:21 | 37.47189 | -3.16550 | 46920 ft | 520 kts | 45° |
| 2026-04-29 16:22 | 37.51718 | -3.10617 | 46919 ft | 520 kts | 44° |
| 2026-04-29 16:22 | 37.56435 | -3.04440 | 46919 ft | 520 kts | 45° |
| 2026-04-29 16:23 | 37.61483 | -2.97807 | 46930 ft | 521 kts | 45° |
| 2026-04-29 16:23 | 37.66511 | -2.91196 | 46932 ft | 521 kts | 45° |
| 2026-04-29 16:24 | 37.71475 | -2.84649 | 46932 ft | 521 kts | 45° |
| 2026-04-29 16:24 | 37.76553 | -2.77942 | 46939 ft | 521 kts | 45° |
| 2026-04-29 16:25 | 37.81544 | -2.71333 | 46939 ft | 522 kts | 45° |
| 2026-04-29 16:25 | 37.86450 | -2.64824 | 46940 ft | 522 kts | 45° |
| 2026-04-29 16:26 | 37.91461 | -2.58162 | 46951 ft | 523 kts | 45° |
| 2026-04-29 16:26 | 37.96525 | -2.51415 | 46943 ft | 523 kts | 45° |
| 2026-04-29 16:27 | 38.01439 | -2.44854 | 46950 ft | 522 kts | 45° |
| 2026-04-29 16:27 | 38.06451 | -2.38150 | 46943 ft | 523 kts | 45° |
| 2026-04-29 16:28 | 38.11357 | -2.31571 | 46936 ft | 523 kts | 45° |
| 2026-04-29 16:28 | 38.16270 | -2.24971 | 46930 ft | 522 kts | 45° |
| 2026-04-29 16:29 | 38.21247 | -2.18192 | 46914 ft | 522 kts | 49° |
| 2026-04-29 16:29 | 38.25028 | -2.12087 | 46932 ft | 523 kts | 52° |
| 2026-04-29 16:30 | 38.29543 | -2.04733 | 46944 ft | 523 kts | 50° |
| 2026-04-29 16:30 | 38.34094 | -1.97430 | 46925 ft | 521 kts | 51° |
| 2026-04-29 16:31 | 38.38511 | -1.90204 | 46916 ft | 521 kts | 50° |
| 2026-04-29 16:31 | 38.42894 | -1.83128 | 46917 ft | 521 kts | 51° |
| 2026-04-29 16:32 | 38.47343 | -1.75837 | 46915 ft | 521 kts | 51° |
| 2026-04-29 16:32 | 38.51830 | -1.68536 | 46908 ft | 521 kts | 51° |
| 2026-04-29 16:33 | 38.58528 | -1.57552 | 46913 ft | 521 kts | 51° |
| 2026-04-29 16:33 | 38.62975 | -1.50251 | 46910 ft | 521 kts | 51° |
| 2026-04-29 16:34 | 38.67448 | -1.42884 | 46918 ft | 520 kts | 51° |
| 2026-04-29 16:34 | 38.71922 | -1.35503 | 46912 ft | 520 kts | 51° |
| 2026-04-29 16:35 | 38.76340 | -1.28197 | 46918 ft | 520 kts | 51° |
| 2026-04-29 16:35 | 38.80747 | -1.20901 | 46915 ft | 520 kts | 51° |
| 2026-04-29 16:36 | 38.85182 | -1.13533 | 46915 ft | 519 kts | 51° |
| 2026-04-29 16:36 | 38.89520 | -1.06316 | 46919 ft | 519 kts | 51° |
| 2026-04-29 16:37 | 38.93877 | -0.99047 | 46920 ft | 519 kts | 51° |
| 2026-04-29 16:37 | 38.97576 | -0.92866 | 46922 ft | 518 kts | 51° |
| 2026-04-29 16:38 | 39.02687 | -0.84302 | 46934 ft | 518 kts | 51° |
| 2026-04-29 16:38 | 39.07152 | -0.77051 | 46909 ft | 517 kts | 45° |
| 2026-04-29 16:39 | 39.12532 | -0.71099 | 46935 ft | 513 kts | 35° |
| 2026-04-29 16:39 | 39.18167 | -0.65335 | 46947 ft | 515 kts | 39° |
| 2026-04-29 16:40 | 39.23582 | -0.59352 | 46938 ft | 513 kts | 37° |
| 2026-04-29 16:40 | 39.29175 | -0.53592 | 46926 ft | 512 kts | 36° |
| 2026-04-29 16:41 | 39.34783 | -0.48079 | 46944 ft | 512 kts | 34° |
| 2026-04-29 16:41 | 39.40505 | -0.42567 | 46945 ft | 512 kts | 35° |
| 2026-04-29 16:42 | 39.46184 | -0.36996 | 46947 ft | 512 kts | 35° |
| 2026-04-29 16:42 | 39.51825 | -0.31511 | 46942 ft | 511 kts | 35° |
| 2026-04-29 16:43 | 39.57525 | -0.25919 | 46943 ft | 511 kts | 35° |
| 2026-04-29 16:43 | 39.63204 | -0.20359 | 46944 ft | 510 kts | 35° |
| 2026-04-29 16:44 | 39.68849 | -0.14807 | 46946 ft | 510 kts | 35° |
| 2026-04-29 16:44 | 39.74510 | -0.09235 | 46946 ft | 509 kts | 35° |
| 2026-04-29 16:45 | 39.80149 | -0.03669 | 46946 ft | 509 kts | 35° |
| 2026-04-29 16:45 | 39.85519 | 0.02334 | 46943 ft | 511 kts | 45° |
| 2026-04-29 16:46 | 39.90298 | 0.09215 | 46957 ft | 513 kts | 46° |
| 2026-04-29 16:46 | 39.95228 | 0.15931 | 46960 ft | 511 kts | 44° |
| 2026-04-29 16:47 | 39.99993 | 0.22653 | 46959 ft | 512 kts | 46° |
| 2026-04-29 16:47 | 40.04872 | 0.29432 | 46956 ft | 512 kts | 45° |
| 2026-04-29 16:48 | 40.09695 | 0.36185 | 46955 ft | 512 kts | 45° |
| 2026-04-29 16:48 | 40.14579 | 0.43038 | 46949 ft | 512 kts | 45° |
| 2026-04-29 16:49 | 40.19491 | 0.49934 | 46946 ft | 513 kts | 45° |
| 2026-04-29 16:49 | 40.23541 | 0.55649 | 46933 ft | 512 kts | 45° |
| 2026-04-29 16:50 | 40.28461 | 0.62581 | 46945 ft | 513 kts | 45° |
| 2026-04-29 16:50 | 40.33155 | 0.69234 | 46956 ft | 513 kts | 45° |
| 2026-04-29 16:51 | 40.37963 | 0.76046 | 46953 ft | 513 kts | 45° |
| 2026-04-29 16:51 | 40.42772 | 0.82886 | 46946 ft | 513 kts | 45° |
| 2026-04-29 16:52 | 40.47612 | 0.89779 | 46950 ft | 513 kts | 45° |
| 2026-04-29 16:52 | 40.52301 | 0.96477 | 46940 ft | 513 kts | 45° |
| 2026-04-29 16:53 | 40.57145 | 1.03409 | 46948 ft | 513 kts | 45° |
| 2026-04-29 16:53 | 40.61898 | 1.10242 | 46947 ft | 513 kts | 45° |
| 2026-04-29 16:54 | 40.66757 | 1.17235 | 46956 ft | 513 kts | 45° |
| 2026-04-29 16:54 | 40.71567 | 1.24179 | 46956 ft | 514 kts | 45° |
| 2026-04-29 16:55 | 40.76419 | 1.31182 | 46961 ft | 514 kts | 45° |
| 2026-04-29 16:55 | 40.81231 | 1.38150 | 46953 ft | 514 kts | 45° |
| 2026-04-29 16:56 | 40.86066 | 1.45166 | 46963 ft | 514 kts | 45° |
| 2026-04-29 16:56 | 40.90850 | 1.52127 | 46954 ft | 515 kts | 45° |
| 2026-04-29 16:57 | 40.95694 | 1.59197 | 46966 ft | 515 kts | 45° |
| 2026-04-29 16:57 | 41.00497 | 1.66219 | 46958 ft | 515 kts | 45° |
| 2026-04-29 16:58 | 41.05177 | 1.73080 | 46961 ft | 515 kts | 45° |
| 2026-04-29 16:58 | 41.10034 | 1.80213 | 46967 ft | 515 kts | 45° |
| 2026-04-29 16:59 | 41.13257 | 1.84956 | 46975 ft | 515 kts | 46° |
| 2026-04-29 16:59 | 41.18082 | 1.92070 | 46971 ft | 515 kts | 46° |
| 2026-04-29 17:00 | 41.22856 | 1.99125 | 46969 ft | 515 kts | 46° |
| 2026-04-29 17:00 | 41.27677 | 2.06268 | 46976 ft | 515 kts | 46° |
| 2026-04-29 17:01 | 41.31958 | 2.13924 | 46961 ft | 519 kts | 60° |
| 2026-04-29 17:01 | 41.34913 | 2.22693 | 46986 ft | 521 kts | 66° |
| 2026-04-29 17:02 | 41.37841 | 2.31435 | 46978 ft | 519 kts | 61° |
| 2026-04-29 17:02 | 41.40977 | 2.40188 | 46952 ft | 519 kts | 65° |
| 2026-04-29 17:03 | 41.43894 | 2.48921 | 46966 ft | 519 kts | 63° |
| 2026-04-29 17:03 | 41.46954 | 2.57603 | 47142 ft | 518 kts | 65° |
| 2026-04-29 17:04 | 41.48416 | 2.61975 | 46914 ft | 516 kts | 64° |
| 2026-04-29 17:04 | 41.49894 | 2.66351 | 46960 ft | 518 kts | 63° |
| 2026-04-29 17:04 | 41.52926 | 2.75107 | 46963 ft | 520 kts | 63° |
| 2026-04-29 17:05 | 41.55903 | 2.83929 | 46967 ft | 518 kts | 64° |
| 2026-04-29 17:05 | 41.58898 | 2.92702 | 46968 ft | 518 kts | 63° |
| 2026-04-29 17:06 | 41.61859 | 3.01482 | 46964 ft | 519 kts | 64° |
| 2026-04-29 17:06 | 41.64748 | 3.10029 | 46970 ft | 519 kts | 64° |
| 2026-04-29 17:07 | 41.67145 | 3.17161 | 46967 ft | 520 kts | 64° |
| 2026-04-29 17:07 | 41.70648 | 3.27609 | 46976 ft | 520 kts | 64° |
| 2026-04-29 17:08 | 41.73598 | 3.36442 | 46974 ft | 520 kts | 64° |
| 2026-04-29 17:08 | 41.76551 | 3.45307 | 46968 ft | 520 kts | 64° |
| 2026-04-29 17:09 | 41.79466 | 3.54088 | 46971 ft | 520 kts | 64° |
| 2026-04-29 17:09 | 41.82375 | 3.62877 | 46974 ft | 519 kts | 64° |
| 2026-04-29 17:10 | 41.85268 | 3.71647 | 46973 ft | 519 kts | 64° |
| 2026-04-29 17:10 | 41.88208 | 3.80590 | 46974 ft | 519 kts | 64° |
| 2026-04-29 17:11 | 41.91112 | 3.89448 | 46981 ft | 519 kts | 64° |
| 2026-04-29 17:11 | 41.94008 | 3.98316 | 46983 ft | 519 kts | 64° |
| 2026-04-29 17:12 | 41.96873 | 4.07121 | 46985 ft | 519 kts | 64° |
| 2026-04-29 17:12 | 41.98837 | 4.13168 | 46980 ft | 519 kts | 64° |
| 2026-04-29 17:13 | 42.02217 | 4.23616 | 46982 ft | 519 kts | 64° |
| 2026-04-29 17:13 | 42.05087 | 4.32514 | 46990 ft | 518 kts | 64° |
| 2026-04-29 17:14 | 42.08321 | 4.41122 | 46972 ft | 513 kts | 53° |
| 2026-04-29 17:14 | 42.13090 | 4.48159 | 46978 ft | 507 kts | 38° |
| 2026-04-29 17:15 | 42.18568 | 4.54105 | 46994 ft | 506 kts | 36° |
| 2026-04-29 17:15 | 42.23768 | 4.60537 | 46994 ft | 507 kts | 41° |
| 2026-04-29 17:16 | 42.29029 | 4.66870 | 46992 ft | 506 kts | 37° |
| 2026-04-29 17:16 | 42.34283 | 4.73210 | 47000 ft | 507 kts | 40° |
| 2026-04-29 17:17 | 42.39506 | 4.79602 | 46995 ft | 506 kts | 38° |
| 2026-04-29 17:17 | 42.44767 | 4.85957 | 46995 ft | 506 kts | 39° |
| 2026-04-29 17:18 | 42.49981 | 4.92363 | 46993 ft | 506 kts | 39° |
| 2026-04-29 17:18 | 42.55152 | 4.98840 | 46970 ft | 509 kts | 45° |
| 2026-04-29 17:19 | 42.59182 | 5.06759 | 46999 ft | 513 kts | 59° |
| 2026-04-29 17:19 | 42.62492 | 5.15355 | 46992 ft | 513 kts | 58° |
| 2026-04-29 17:20 | 42.66154 | 5.23664 | 46991 ft | 512 kts | 57° |
| 2026-04-29 17:20 | 42.69599 | 5.32146 | 47002 ft | 513 kts | 59° |
| 2026-04-29 17:21 | 42.73156 | 5.40545 | 47004 ft | 512 kts | 57° |
| 2026-04-29 17:21 | 42.76646 | 5.48994 | 47002 ft | 512 kts | 59° |
| 2026-04-29 17:22 | 42.80178 | 5.57495 | 47006 ft | 512 kts | 58° |
| 2026-04-29 17:22 | 42.83647 | 5.65881 | 47006 ft | 512 kts | 59° |
| 2026-04-29 17:23 | 42.87135 | 5.74354 | 47002 ft | 511 kts | 58° |
| 2026-04-29 17:23 | 42.90612 | 5.82799 | 47009 ft | 512 kts | 59° |
| 2026-04-29 17:24 | 42.94086 | 5.91287 | 47019 ft | 511 kts | 58° |
| 2026-04-29 17:24 | 42.97555 | 5.99768 | 47020 ft | 511 kts | 59° |
| 2026-04-29 17:25 | 43.01028 | 6.08298 | 47027 ft | 511 kts | 59° |
| 2026-04-29 17:25 | 43.04482 | 6.16793 | 47025 ft | 511 kts | 59° |
| 2026-04-29 17:26 | 43.07925 | 6.25296 | 47030 ft | 511 kts | 59° |
| 2026-04-29 17:26 | 43.11358 | 6.33795 | 47026 ft | 510 kts | 59° |
| 2026-04-29 17:27 | 43.14790 | 6.42320 | 47027 ft | 510 kts | 59° |
| 2026-04-29 17:27 | 43.18214 | 6.50847 | 47022 ft | 510 kts | 59° |
| 2026-04-29 17:28 | 43.20466 | 6.57859 | 47007 ft | 514 kts | 71° |
| 2026-04-29 17:28 | 43.21542 | 6.67664 | 47002 ft | 517 kts | 89° |
| 2026-04-29 17:29 | 43.20555 | 6.77469 | 47015 ft | 516 kts | 103° |
| 2026-04-29 17:29 | 43.19068 | 6.85411 | 47021 ft | 517 kts | 104° |
| 2026-04-29 17:30 | 43.17769 | 6.96777 | 47001 ft | 516 kts | 95° |
| 2026-04-29 17:30 | 43.16733 | 7.06521 | 47005 ft | 517 kts | 101° |
| 2026-04-29 17:31 | 43.15507 | 7.16289 | 47005 ft | 517 kts | 97° |
| 2026-04-29 17:31 | 43.14455 | 7.25964 | 47006 ft | 517 kts | 99° |
| 2026-04-29 17:32 | 43.13249 | 7.35632 | 47002 ft | 517 kts | 98° |
| 2026-04-29 17:32 | 43.12140 | 7.45381 | 47004 ft | 517 kts | 99° |
| 2026-04-29 17:33 | 43.10944 | 7.55086 | 47004 ft | 517 kts | 99° |
| 2026-04-29 17:33 | 43.09795 | 7.64784 | 46982 ft | 512 kts | 99° |
| 2026-04-29 17:34 | 43.08608 | 7.74340 | 46976 ft | 508 kts | 100° |
| 2026-04-29 17:34 | 43.08224 | 7.77474 | 46978 ft | 497 kts | 99° |
| 2026-04-29 17:34 | 43.07669 | 7.82058 | 46867 ft | 480 kts | 99° |
| 2026-04-29 17:35 | 43.06747 | 7.89573 | 45108 ft | 499 kts | 100° |
| 2026-04-29 17:35 | 43.05965 | 7.95868 | 45000 ft | 502 kts | 100° |
| 2026-04-29 17:36 | 43.04795 | 8.05343 | 45002 ft | 512 kts | 100° |
| 2026-04-29 17:36 | 43.03603 | 8.14843 | 44995 ft | 513 kts | 100° |
| 2026-04-29 17:37 | 43.02409 | 8.24348 | 44970 ft | 502 kts | 100° |
| 2026-04-29 17:37 | 43.01475 | 8.33940 | 44988 ft | 514 kts | 95° |
| 2026-04-29 17:38 | 43.00469 | 8.43577 | 44983 ft | 513 kts | 102° |
| 2026-04-29 17:38 | 42.99002 | 8.53116 | 44982 ft | 513 kts | 101° |
| 2026-04-29 17:39 | 42.97708 | 8.62698 | 44987 ft | 514 kts | 101° |
| 2026-04-29 17:39 | 42.96283 | 8.72259 | 44985 ft | 514 kts | 102° |
| 2026-04-29 17:40 | 42.95804 | 8.81966 | 44963 ft | 514 kts | 85° |
| 2026-04-29 17:40 | 42.96324 | 8.86757 | 44605 ft | 508 kts | 78° |
| 2026-04-29 17:40 | 42.97218 | 8.91437 | 43548 ft | 505 kts | 72° |
| 2026-04-29 17:40 | 42.98296 | 8.95938 | 42797 ft | 496 kts | 70° |
| 2026-04-29 17:41 | 42.99355 | 9.00382 | 42052 ft | 488 kts | 72° |
| 2026-04-29 17:41 | 43.00174 | 9.04848 | 41295 ft | 482 kts | 77° |
| 2026-04-29 17:41 | 43.00842 | 9.09310 | 40537 ft | 475 kts | 77° |
| 2026-04-29 17:41 | 43.01590 | 9.13690 | 39793 ft | 469 kts | 74° |
| 2026-04-29 17:42 | 43.02456 | 9.17975 | 39058 ft | 464 kts | 73° |
| 2026-04-29 17:42 | 43.03279 | 9.22230 | 38251 ft | 463 kts | 75° |
| 2026-04-29 17:42 | 43.04008 | 9.26501 | 37531 ft | 460 kts | 76° |
| 2026-04-29 17:42 | 43.04744 | 9.30771 | 36791 ft | 463 kts | 75° |
| 2026-04-29 17:43 | 43.05542 | 9.35065 | 36043 ft | 469 kts | 74° |
| 2026-04-29 17:43 | 43.06356 | 9.39421 | 35271 ft | 474 kts | 75° |
| 2026-04-29 17:43 | 43.07138 | 9.43827 | 34504 ft | 477 kts | 75° |
| 2026-04-29 17:43 | 43.07909 | 9.48239 | 33817 ft | 476 kts | 75° |
| 2026-04-29 17:44 | 43.08697 | 9.52632 | 33061 ft | 478 kts | 75° |
| 2026-04-29 17:44 | 43.09500 | 9.57053 | 32297 ft | 479 kts | 75° |
| 2026-04-29 17:44 | 43.10293 | 9.61497 | 31524 ft | 481 kts | 75° |
| 2026-04-29 17:44 | 43.11078 | 9.65968 | 30747 ft | 483 kts | 75° |
| 2026-04-29 17:45 | 43.11867 | 9.70435 | 29952 ft | 482 kts | 75° |
| 2026-04-29 17:45 | 43.12645 | 9.74803 | 29173 ft | 474 kts | 75° |
| 2026-04-29 17:45 | 43.13425 | 9.79220 | 28418 ft | 469 kts | 75° |
| 2026-04-29 17:45 | 43.14183 | 9.83544 | 27674 ft | 464 kts | 75° |
| 2026-04-29 17:46 | 43.14942 | 9.87876 | 26934 ft | 460 kts | 75° |
| 2026-04-29 17:46 | 43.15685 | 9.92114 | 26205 ft | 455 kts | 75° |
| 2026-04-29 17:46 | 43.16398 | 9.96193 | 25505 ft | 451 kts | 75° |
| 2026-04-29 17:46 | 43.17120 | 10.00337 | 24796 ft | 447 kts | 75° |
| 2026-04-29 17:47 | 43.17827 | 10.04406 | 24095 ft | 442 kts | 75° |
| 2026-04-29 17:47 | 43.18535 | 10.08488 | 23359 ft | 439 kts | 75° |
| 2026-04-29 17:47 | 43.19243 | 10.12577 | 22646 ft | 432 kts | 75° |
| 2026-04-29 17:47 | 43.19902 | 10.16391 | 21993 ft | 429 kts | 75° |
| 2026-04-29 17:48 | 43.20568 | 10.20258 | 21324 ft | 426 kts | 75° |
| 2026-04-29 17:48 | 43.21255 | 10.24251 | 20640 ft | 422 kts | 75° |
| 2026-04-29 17:48 | 43.21972 | 10.28196 | 19931 ft | 415 kts | 71° |
| 2026-04-29 17:48 | 43.22752 | 10.30491 | 19379 ft | 412 kts | 56° |
| 2026-04-29 17:49 | 43.24618 | 10.33541 | 18651 ft | 403 kts | 43° |
| 2026-04-29 17:49 | 43.26625 | 10.36160 | 18013 ft | 395 kts | 40° |
| 2026-04-29 17:49 | 43.28292 | 10.38339 | 17446 ft | 393 kts | 42° |
| 2026-04-29 17:49 | 43.30103 | 10.41098 | 16779 ft | 390 kts | 48° |
| 2026-04-29 17:50 | 43.31818 | 10.44011 | 16092 ft | 384 kts | 49° |
| 2026-04-29 17:50 | 43.33565 | 10.46794 | 15137 ft | 386 kts | 46° |
| 2026-04-29 17:50 | 43.35382 | 10.49480 | 14255 ft | 383 kts | 45° |
| 2026-04-29 17:50 | 43.37156 | 10.52179 | 13256 ft | 373 kts | 47° |
| 2026-04-29 17:51 | 43.38833 | 10.54852 | 12237 ft | 365 kts | 48° |
| 2026-04-29 17:51 | 43.40445 | 10.57400 | 11265 ft | 357 kts | 47° |
| 2026-04-29 17:51 | 43.42077 | 10.59918 | 10305 ft | 335 kts | 47° |
| 2026-04-29 17:51 | 43.43534 | 10.62172 | 9859 ft | 315 kts | 47° |
| 2026-04-29 17:52 | 43.44900 | 10.64310 | 9452 ft | 286 kts | 47° |
| 2026-04-29 17:52 | 43.45771 | 10.65676 | 9183 ft | 290 kts | 48° |
| 2026-04-29 17:52 | 43.47582 | 10.68504 | 8427 ft | 291 kts | 48° |
| 2026-04-29 17:52 | 43.48913 | 10.70584 | 8105 ft | 289 kts | 49° |
| 2026-04-29 17:53 | 43.50243 | 10.72666 | 7734 ft | 289 kts | 49° |
| 2026-04-29 17:53 | 43.51564 | 10.74737 | 7359 ft | 287 kts | 49° |
| 2026-04-29 17:53 | 43.52894 | 10.76819 | 6980 ft | 284 kts | 49° |
| 2026-04-29 17:53 | 43.54193 | 10.78857 | 6614 ft | 281 kts | 50° |
| 2026-04-29 17:54 | 43.55475 | 10.80870 | 6233 ft | 278 kts | 50° |
| 2026-04-29 17:54 | 43.56728 | 10.82837 | 5878 ft | 275 kts | 50° |
| 2026-04-29 17:54 | 43.57897 | 10.84673 | 5544 ft | 267 kts | 50° |
| 2026-04-29 17:54 | 43.59100 | 10.86564 | 5183 ft | 257 kts | 51° |
| 2026-04-29 17:55 | 43.60244 | 10.88365 | 4843 ft | 241 kts | 51° |
| 2026-04-29 17:55 | 43.61290 | 10.90009 | 4502 ft | 215 kts | 51° |
| 2026-04-29 17:55 | 43.62234 | 10.91498 | 4234 ft | 202 kts | 51° |
| 2026-04-29 17:55 | 43.63115 | 10.92891 | 3975 ft | 198 kts | 51° |
| 2026-04-29 17:56 | 43.64022 | 10.94325 | 3720 ft | 196 kts | 50° |
| 2026-04-29 17:56 | 43.64916 | 10.95734 | 3462 ft | 194 kts | 50° |
| 2026-04-29 17:56 | 43.65808 | 10.97141 | 3194 ft | 195 kts | 49° |
| 2026-04-29 17:56 | 43.66700 | 10.98548 | 3047 ft | 190 kts | 49° |
| 2026-04-29 17:57 | 43.67563 | 10.99842 | 3053 ft | 187 kts | 46° |
| 2026-04-29 17:57 | 43.68467 | 11.01158 | 3039 ft | 190 kts | 47° |
| 2026-04-29 17:57 | 43.69328 | 11.02477 | 3023 ft | 180 kts | 48° |
| 2026-04-29 17:57 | 43.69900 | 11.03360 | 3030 ft | 182 kts | 48° |
| 2026-04-29 17:58 | 43.70915 | 11.04929 | 2910 ft | 147 kts | 47° |
| 2026-04-29 17:58 | 43.71521 | 11.05868 | 2755 ft | 136 kts | 47° |
| 2026-04-29 17:58 | 43.72143 | 11.06834 | 2578 ft | 134 kts | 47° |
| 2026-04-29 17:58 | 43.72756 | 11.07783 | 2405 ft | 135 kts | 46° |
| 2026-04-29 17:59 | 43.73169 | 11.08421 | 2288 ft | 134 kts | 47° |
| 2026-04-29 17:59 | 43.73785 | 11.09373 | 2114 ft | 135 kts | 45° |
| 2026-04-29 17:59 | 43.74412 | 11.10338 | 1924 ft | 138 kts | 46° |
| 2026-04-29 17:59 | 43.75283 | 11.11677 | 1665 ft | 134 kts | 45° |
| 2026-04-29 18:00 | 43.75685 | 11.12296 | 1521 ft | 135 kts | 45° |
| 2026-04-29 18:00 | 43.76290 | 11.13236 | 1361 ft | 128 kts | 46° |
| 2026-04-29 18:00 | 43.76918 | 11.14206 | 1132 ft | 128 kts | 47° |
| 2026-04-29 18:00 | 43.77513 | 11.15119 | 944 ft | 126 kts | 47° |
| 2026-04-29 18:01 | 43.78086 | 11.16019 | 785 ft | 124 kts | 48° |
| 2026-04-29 18:01 | 43.78657 | 11.16913 | 655 ft | 125 kts | 47° |
| 2026-04-29 18:01 | 43.79257 | 11.17828 | 511 ft | 128 kts | 47° |
| 2026-04-29 18:01 | 43.79837 | 11.18715 | 394 ft | 127 kts | 47° |
| 2026-04-29 18:02 | 43.80446 | 11.19645 | 211 ft | 134 kts | 47° |
| 2026-04-29 18:02 | 43.80880 | 11.20326 | 128 ft | 125 kts | 48° |
| 2026-04-29 18:02 | 43.81265 | 11.20848 | 129 ft | 33 kts | 53° |
| 2026-04-29 18:02 | 43.81286 | 11.20887 | 128 ft | 0 kts | 53° |
| 2026-04-29 18:04 | 43.81291 | 11.20895 | 127 ft | 1 kts | 53° |
| 2026-04-29 18:04 | 43.81296 | 11.20905 | 128 ft | 1 kts | 53° |
| 2026-04-29 18:05 | 43.81298 | 11.20909 | 128 ft | 0 kts | 53° |
| 2026-04-29 18:05 | 43.81305 | 11.20924 | 125 ft | 3 kts | 55° |
| 2026-04-29 18:05 | 43.81316 | 11.20944 | 129 ft | 2 kts | 56° |
| 2026-04-29 18:05 | 43.81323 | 11.20959 | 129 ft | 0 kts | 53° |
| 2026-04-29 18:06 | 43.81323 | 11.20957 | 129 ft | 0 kts | 52° |
| 2026-04-29 18:07 | 43.81323 | 11.20959 | 130 ft | 0 kts | 51° |
| 2026-04-29 18:07 | 43.81330 | 11.20975 | 128 ft | 3 kts | 62° |
| 2026-04-29 18:08 | 43.81351 | 11.21036 | 126 ft | 14 kts | 58° |
| 2026-04-29 18:08 | 43.81421 | 11.21154 | 130 ft | 15 kts | 49° |
| 2026-04-29 18:08 | 43.81480 | 11.21246 | 126 ft | 15 kts | 48° |
| 2026-04-29 18:08 | 43.81491 | 11.21289 | 128 ft | 6 kts | 94° |
| 2026-04-29 18:09 | 43.81509 | 11.21334 | 133 ft | 2 kts | 36° |
| 2026-04-29 18:09 | 43.81517 | 11.21337 | 134 ft | 1 kts | 12° |
| 2026-04-29 18:09 | 43.81532 | 11.21318 | 134 ft | 5 kts | 280° |
| 2026-04-29 18:09 | 43.81496 | 11.21268 | 129 ft | 13 kts | 226° |
| 2026-04-29 18:10 | 43.81401 | 11.21124 | 129 ft | 25 kts | 227° |
| 2026-04-29 18:10 | 43.81271 | 11.20924 | 127 ft | 29 kts | 227° |
| 2026-04-29 18:10 | 43.81141 | 11.20721 | 126 ft | 27 kts | 228° |
| 2026-04-29 18:10 | 43.81019 | 11.20533 | 121 ft | 26 kts | 228° |
| 2026-04-29 18:11 | 43.80933 | 11.20402 | 126 ft | 30 kts | 228° |
| 2026-04-29 18:11 | 43.80749 | 11.20116 | 129 ft | 28 kts | 227° |
| 2026-04-29 18:11 | 43.80624 | 11.19925 | 126 ft | 19 kts | 229° |
| 2026-04-29 18:11 | 43.80563 | 11.19826 | 127 ft | 13 kts | 233° |
| 2026-04-29 18:12 | 43.80563 | 11.19764 | 126 ft | 6 kts | 321° |
| 2026-04-29 18:12 | 43.80629 | 11.19686 | 126 ft | 17 kts | 318° |
| 2026-04-29 18:12 | 43.80675 | 11.19628 | 126 ft | 5 kts | 317° |
| 2026-04-29 18:12 | 43.80683 | 11.19617 | 126 ft | 0 kts | 318° |
| 2026-04-29 18:13 | 43.80692 | 11.19604 | 127 ft | 6 kts | 304° |
| 2026-04-29 18:13 | 43.80695 | 11.19564 | 127 ft | 1 kts | 266° |
| 2026-04-29 18:13 | 43.80694 | 11.19533 | 127 ft | 4 kts | 268° |
| 2026-04-29 18:13 | 43.80694 | 11.19523 | 127 ft | 0 kts | 268° |
| 2026-04-29 18:14 | 43.80694 | 11.19521 | 127 ft | 0 kts | 266° |